Time;durP1;ratioP1;P1;durP2;ratioP2;P2;SDS_P1;SDS_P2;PMS_P1;PMS_P2;Temp;Humidity;BMP_temperature;BMP_pressure;BME280_temperature;BME280_humidity;BME280_pressure;Samples;Min_cycle;Max_cycle;Signal;HPM_P1;HPM_P2
2022/03/20 00:00:07;;;;;;;;;;;8.80;70.10;;;;;;5073814;28;19943;-70
2022/03/20 00:02:33;;;;;;;;;;;8.80;70.60;;;;;;5084340;28;20864;-70
2022/03/20 00:05:00;;;;;;;;;;;8.70;70.60;;;;;;5082829;28;19913;-70
2022/03/20 00:07:26;;;;;;;;;;;8.70;70.60;;;;;;5086286;28;19913;-70
2022/03/20 00:09:52;;;;;;;;;;;8.70;70.00;;;;;;5085894;28;19913;-70
2022/03/20 00:12:18;;;;;;;;;;;8.60;70.40;;;;;;5085962;28;20400;-70
2022/03/20 00:14:44;;;;;;;;;;;8.60;70.80;;;;;;5088341;28;19963;-70
2022/03/20 00:17:09;;;;;;;;;;;8.60;70.60;;;;;;5087019;28;19919;-70
2022/03/20 00:19:35;;;;;;;;;;;8.60;71.10;;;;;;5083598;28;19913;-67
2022/03/20 00:22:00;;;;;;;;;;;8.50;71.00;;;;;;5070298;28;20290;-67
2022/03/20 00:24:26;;;;;;;;;;;8.50;70.90;;;;;;5086570;28;19908;-67
2022/03/20 00:26:56;;;;;;;;;;;8.50;71.60;;;;;;5086053;28;20336;-67
2022/03/20 00:29:23;;;;;;;;;;;8.40;71.00;;;;;;5086228;28;19916;-67
2022/03/20 00:31:49;;;;;;;;;;;8.40;71.00;;;;;;5085203;28;19975;-67
2022/03/20 00:34:14;;;;;;;;;;;8.30;70.80;;;;;;5085630;28;19944;-67
2022/03/20 00:36:40;;;;;;;;;;;8.30;70.80;;;;;;5083795;28;19912;-67
2022/03/20 00:39:05;;;;;;;;;;;8.30;71.10;;;;;;5085101;28;19980;-67
2022/03/20 00:41:31;;;;;;;;;;;8.30;71.20;;;;;;5085503;28;19923;-67
2022/03/20 00:43:58;;;;;;;;;;;8.20;70.00;;;;;;5087222;28;19961;-67
2022/03/20 00:46:24;;;;;;;;;;;8.20;71.50;;;;;;5088230;28;19955;-67
2022/03/20 00:48:50;;;;;;;;;;;8.20;71.90;;;;;;5069852;28;20372;-67
2022/03/20 00:51:15;;;;;;;;;;;8.10;71.80;;;;;;5066443;28;20300;-67
2022/03/20 00:53:41;;;;;;;;;;;8.10;71.60;;;;;;5083922;28;19911;-70
2022/03/20 00:56:07;;;;;;;;;;;8.10;71.70;;;;;;5086426;28;19918;-70
2022/03/20 00:58:33;;;;;;;;;;;8.00;72.00;;;;;;5086437;28;20365;-70
2022/03/20 01:00:58;;;;;;;;;;;8.00;71.80;;;;;;5086779;28;19937;-70
2022/03/20 01:03:24;;;;;;;;;;;8.00;71.90;;;;;;5081437;28;19911;-70
2022/03/20 01:05:49;;;;;;;;;;;7.90;71.60;;;;;;5082727;28;20304;-69
2022/03/20 01:08:15;;;;;;;;;;;7.90;72.10;;;;;;5083867;28;19955;-70
2022/03/20 01:10:41;;;;;;;;;;;7.90;71.70;;;;;;5085142;28;20327;-70
2022/03/20 01:13:06;;;;;;;;;;;7.90;72.30;;;;;;5085609;28;19908;-70
2022/03/20 01:15:32;;;;;;;;;;;7.80;72.40;;;;;;5084986;28;19908;-70
2022/03/20 01:17:58;;;;;;;;;;;7.80;72.40;;;;;;5081639;28;19919;-70
2022/03/20 01:20:24;;;;;;;;;;;7.80;72.40;;;;;;5081382;28;19912;-70
2022/03/20 01:22:49;;;;;;;;;;;7.80;72.50;;;;;;5064751;28;20387;-70
2022/03/20 01:25:15;;;;;;;;;;;7.80;72.50;;;;;;5083781;28;19920;-69
2022/03/20 01:27:42;;;;;;;;;;;7.70;72.00;;;;;;5087976;28;19913;-70
2022/03/20 01:30:08;;;;;;;;;;;7.70;72.60;;;;;;5080831;28;19908;-70
2022/03/20 01:32:34;;;;;;;;;;;7.70;72.70;;;;;;5083628;28;19965;-70
2022/03/20 01:34:59;;;;;;;;;;;7.70;72.70;;;;;;5084363;28;20357;-70
2022/03/20 01:37:25;;;;;;;;;;;7.60;72.30;;;;;;5085703;28;19915;-69
2022/03/20 01:39:52;;;;;;;;;;;7.60;72.60;;;;;;5085170;28;19913;-70
2022/03/20 01:42:18;;;;;;;;;;;7.60;72.00;;;;;;5086484;28;20266;-69
2022/03/20 01:44:44;;;;;;;;;;;7.60;72.60;;;;;;5083056;28;19920;-70
2022/03/20 01:47:09;;;;;;;;;;;7.50;72.60;;;;;;5083065;28;19913;-69
2022/03/20 01:49:35;;;;;;;;;;;7.50;72.60;;;;;;5083900;28;20637;-70
2022/03/20 01:52:10;;;;;;;;;;;7.50;72.60;;;;;;5085513;28;19916;-70
2022/03/20 01:54:36;;;;;;;;;;;7.50;73.00;;;;;;5076306;28;19912;-69
2022/03/20 01:57:02;;;;;;;;;;;7.40;72.10;;;;;;5085158;28;19920;-70
2022/03/20 01:59:27;;;;;;;;;;;7.40;72.70;;;;;;5084239;28;19938;-69
2022/03/20 02:01:53;;;;;;;;;;;7.40;72.70;;;;;;5081514;28;19911;-69
2022/03/20 02:04:19;;;;;;;;;;;7.40;73.00;;;;;;5082867;28;19912;-70
2022/03/20 02:06:44;;;;;;;;;;;7.40;72.70;;;;;;5084149;28;19912;-69
2022/03/20 02:09:10;;;;;;;;;;;7.40;72.80;;;;;;5085418;28;20391;-69
2022/03/20 02:11:36;;;;;;;;;;;7.30;72.50;;;;;;5082637;28;19916;-70
2022/03/20 02:14:02;;;;;;;;;;;7.30;72.50;;;;;;5085849;28;20313;-69
2022/03/20 02:16:28;;;;;;;;;;;7.30;73.00;;;;;;5084738;28;19912;-70
2022/03/20 02:18:54;;;;;;;;;;;7.30;72.90;;;;;;5072123;28;20440;-69
2022/03/20 02:21:36;;;;;;;;;;;7.30;72.80;;;;;;5085670;28;19919;-70
2022/03/20 02:24:02;;;;;;;;;;;7.30;72.80;;;;;;5084723;28;19969;-69
2022/03/20 02:26:29;;;;;;;;;;;7.30;73.00;;;;;;5082683;28;19919;-69
2022/03/20 02:28:54;;;;;;;;;;;7.30;72.90;;;;;;5084794;28;20536;-70
2022/03/20 02:31:21;;;;;;;;;;;7.30;72.80;;;;;;5082092;28;19923;-69
2022/03/20 02:33:46;;;;;;;;;;;7.30;72.70;;;;;;5082019;28;19951;-70
2022/03/20 02:36:12;;;;;;;;;;;7.20;72.90;;;;;;5085664;28;19947;-69
2022/03/20 02:38:38;;;;;;;;;;;7.20;72.60;;;;;;5086029;28;19980;-70
2022/03/20 02:41:14;;;;;;;;;;;7.20;71.60;;;;;;5085307;28;19947;-70
2022/03/20 02:43:49;;;;;;;;;;;7.20;73.00;;;;;;5085239;28;19982;-70
2022/03/20 02:46:16;;;;;;;;;;;7.20;72.80;;;;;;5083365;28;19912;-69
2022/03/20 02:48:42;;;;;;;;;;;7.20;72.80;;;;;;5067296;28;19923;-70
2022/03/20 02:51:07;;;;;;;;;;;7.20;72.70;;;;;;5084070;28;19916;-69
2022/03/20 02:53:34;;;;;;;;;;;7.10;72.60;;;;;;5082166;28;19920;-70
2022/03/20 02:56:00;;;;;;;;;;;7.20;72.80;;;;;;5083576;28;19955;-69
2022/03/20 02:58:27;;;;;;;;;;;7.20;72.60;;;;;;5084777;28;20386;-69
2022/03/20 03:00:54;;;;;;;;;;;7.20;72.60;;;;;;5085750;28;20609;-69
2022/03/20 03:03:20;;;;;;;;;;;7.10;72.70;;;;;;5085418;28;19989;-70
2022/03/20 03:05:46;;;;;;;;;;;7.10;72.60;;;;;;5084638;28;20440;-70
2022/03/20 03:10:55;;;;;;;;;;;7.10;72.60;;;;;;5080074;28;19919;-69
2022/03/20 03:13:22;;;;;;;;;;;7.10;71.40;;;;;;5085601;28;19934;-70
2022/03/20 03:15:47;;;;;;;;;;;7.10;72.60;;;;;;5082706;28;19908;-70
2022/03/20 03:18:13;;;;;;;;;;;7.10;72.60;;;;;;5084781;28;19908;-69
2022/03/20 03:20:38;;;;;;;;;;;7.10;72.30;;;;;;5084446;28;19919;-70
2022/03/20 03:23:04;;;;;;;;;;;7.10;72.50;;;;;;5084582;28;20419;-69
2022/03/20 03:25:35;;;;;;;;;;;7.10;72.50;;;;;;5084528;28;19912;-69
2022/03/20 03:28:01;;;;;;;;;;;7.00;72.10;;;;;;5072895;28;19919;-70
2022/03/20 03:30:27;;;;;;;;;;;7.10;72.50;;;;;;5083996;28;19916;-70
2022/03/20 03:32:52;;;;;;;;;;;7.10;72.60;;;;;;5082094;28;19924;-70
2022/03/20 03:38:02;;;;;;;;;;;7.00;72.20;;;;;;5083534;28;19973;-69
2022/03/20 03:40:27;;;;;;;;;;;7.00;72.20;;;;;;5083811;28;20310;-69
2022/03/20 03:42:53;;;;;;;;;;;7.00;72.30;;;;;;5084623;28;20579;-69
2022/03/20 03:45:19;;;;;;;;;;;7.00;72.30;;;;;;5083940;28;19965;-70
2022/03/20 03:47:44;;;;;;;;;;;7.00;72.40;;;;;;5084667;28;20259;-70
2022/03/20 03:50:10;;;;;;;;;;;7.00;72.40;;;;;;5070901;28;20532;-70
2022/03/20 03:52:37;;;;;;;;;;;7.00;72.20;;;;;;5083651;28;20322;-69
2022/03/20 03:55:05;;;;;;;;;;;7.00;72.00;;;;;;5083446;28;20283;-70
2022/03/20 03:57:31;;;;;;;;;;;7.00;72.20;;;;;;5081188;28;19922;-70
2022/03/20 03:59:56;;;;;;;;;;;7.00;72.30;;;;;;5074344;28;19913;-69
2022/03/20 04:02:22;;;;;;;;;;;7.00;72.30;;;;;;5076604;28;19961;-69
2022/03/20 04:04:48;;;;;;;;;;;7.00;72.10;;;;;;5080354;28;20015;-70
2022/03/20 04:07:16;;;;;;;;;;;6.90;72.10;;;;;;5081460;28;19935;-69
2022/03/20 04:09:42;;;;;;;;;;;6.90;72.20;;;;;;5083807;28;19908;-69
2022/03/20 04:12:08;;;;;;;;;;;6.90;72.30;;;;;;5084604;28;20687;-70
2022/03/20 04:14:34;;;;;;;;;;;6.90;72.10;;;;;;5083646;28;19920;-69
2022/03/20 04:16:59;;;;;;;;;;;6.90;72.20;;;;;;5083594;28;19912;-69
2022/03/20 04:19:25;;;;;;;;;;;6.90;72.10;;;;;;5083526;28;20581;-70
2022/03/20 04:21:51;;;;;;;;;;;6.90;72.10;;;;;;5084042;28;20326;-70
2022/03/20 04:24:16;;;;;;;;;;;6.90;72.10;;;;;;5083430;28;20260;-70
2022/03/20 04:26:42;;;;;;;;;;;6.90;72.00;;;;;;5083247;28;19939;-69
2022/03/20 04:29:07;;;;;;;;;;;6.90;71.80;;;;;;5081477;28;19912;-70
2022/03/20 04:31:33;;;;;;;;;;;6.90;72.20;;;;;;5080945;28;19916;-69
2022/03/20 04:33:59;;;;;;;;;;;6.90;72.20;;;;;;5082891;28;19916;-70
2022/03/20 04:36:27;;;;;;;;;;;6.80;72.00;;;;;;5080926;28;20485;-70
2022/03/20 04:38:54;;;;;;;;;;;6.80;71.10;;;;;;5079798;28;19913;-70
2022/03/20 04:41:20;;;;;;;;;;;6.80;72.00;;;;;;5066643;28;19978;-69
2022/03/20 04:43:47;;;;;;;;;;;6.80;72.00;;;;;;5083933;28;19912;-70
2022/03/20 04:46:13;;;;;;;;;;;6.80;71.90;;;;;;5084114;28;19919;-70
2022/03/20 04:59:35;;;;;;;;;;;6.80;71.90;;;;;;5088286;28;19919;-70
2022/03/20 05:02:00;;;;;;;;;;;6.70;71.70;;;;;;5086008;28;19984;-70
2022/03/20 05:04:26;;;;;;;;;;;6.70;71.70;;;;;;5084462;28;19916;-69
2022/03/20 05:06:51;;;;;;;;;;;6.70;71.80;;;;;;5085188;28;19950;-69
2022/03/20 05:14:45;;;;;;;;;;;6.70;71.70;;;;;;5084924;28;19931;-69
2022/03/20 05:17:10;;;;;;;;;;;6.60;71.60;;;;;;5072260;28;19912;-69
2022/03/20 05:19:37;;;;;;;;;;;6.60;71.70;;;;;;5086190;28;20020;-69
2022/03/20 05:22:04;;;;;;;;;;;6.60;71.90;;;;;;5086273;28;19909;-69
2022/03/20 05:24:29;;;;;;;;;;;6.60;71.80;;;;;;5071869;28;20476;-69
2022/03/20 05:26:55;;;;;;;;;;;6.60;72.00;;;;;;5086998;28;19912;-70
2022/03/20 05:29:21;;;;;;;;;;;6.60;71.80;;;;;;5083128;28;20392;-70
2022/03/20 05:31:47;;;;;;;;;;;6.50;71.50;;;;;;5082070;28;19932;-69
2022/03/20 05:34:13;;;;;;;;;;;6.50;71.90;;;;;;5085492;28;19916;-69
2022/03/20 05:36:38;;;;;;;;;;;6.50;71.80;;;;;;5079380;28;20550;-70
2022/03/20 05:39:04;;;;;;;;;;;6.50;72.00;;;;;;5085378;28;19912;-69
2022/03/20 05:44:18;;;;;;;;;;;6.40;71.80;;;;;;5085296;28;19919;-69
2022/03/20 05:46:49;;;;;;;;;;;6.50;71.80;;;;;;5084814;28;19920;-70
2022/03/20 05:49:15;;;;;;;;;;;6.40;71.60;;;;;;5084815;28;20033;-70
2022/03/20 05:51:40;;;;;;;;;;;6.40;72.40;;;;;;5084971;28;19951;-69
2022/03/20 05:54:06;;;;;;;;;;;6.40;71.80;;;;;;5080692;28;19939;-69
2022/03/20 05:59:16;;;;;;;;;;;6.40;71.80;;;;;;5087399;28;19947;-70
2022/03/20 06:01:42;;;;;;;;;;;6.40;71.60;;;;;;5084761;28;20380;-69
2022/03/20 06:04:08;;;;;;;;;;;6.30;71.60;;;;;;5083569;28;19966;-69
2022/03/20 06:06:35;;;;;;;;;;;6.30;71.70;;;;;;5087257;28;19954;-69
2022/03/20 06:09:01;;;;;;;;;;;6.30;71.40;;;;;;5084682;28;19912;-70
2022/03/20 06:11:27;;;;;;;;;;;6.30;71.60;;;;;;5082613;28;19993;-69
2022/03/20 06:13:53;;;;;;;;;;;6.30;71.50;;;;;;5083408;28;19908;-69
2022/03/20 06:16:21;;;;;;;;;;;6.30;71.50;;;;;;5082914;28;19912;-69
2022/03/20 06:18:47;;;;;;;;;;;6.30;71.30;;;;;;5086791;28;19916;-70
2022/03/20 06:21:13;;;;;;;;;;;6.30;71.30;;;;;;5086029;28;19969;-70
2022/03/20 06:23:39;;;;;;;;;;;6.30;71.30;;;;;;5085145;28;20324;-70
2022/03/20 06:26:05;;;;;;;;;;;6.30;71.40;;;;;;5085905;28;20439;-69
2022/03/20 06:28:30;;;;;;;;;;;6.30;71.10;;;;;;5084473;28;19916;-69
2022/03/20 06:30:56;;;;;;;;;;;6.30;70.90;;;;;;5084497;28;19916;-69
2022/03/20 06:33:25;;;;;;;;;;;6.20;71.10;;;;;;5068794;28;19967;-70
2022/03/20 06:35:54;;;;;;;;;;;6.30;71.10;;;;;;5085353;28;19909;-69
2022/03/20 06:38:22;;;;;;;;;;;6.20;71.10;;;;;;5077793;28;20709;-70
2022/03/20 06:40:47;;;;;;;;;;;6.20;70.50;;;;;;5085877;28;19977;-69
2022/03/20 06:43:14;;;;;;;;;;;6.20;71.00;;;;;;5085109;28;20380;-69
2022/03/20 06:45:41;;;;;;;;;;;6.20;70.90;;;;;;5074616;28;20423;-69
2022/03/20 06:48:07;;;;;;;;;;;6.20;70.90;;;;;;5081890;28;20305;-69
2022/03/20 06:50:33;;;;;;;;;;;6.20;71.00;;;;;;5085746;28;19977;-69
2022/03/20 06:53:02;;;;;;;;;;;6.20;71.10;;;;;;5084569;28;20345;-69
2022/03/20 06:55:30;;;;;;;;;;;6.20;70.60;;;;;;5084707;28;19919;-70
2022/03/20 06:57:55;;;;;;;;;;;6.20;70.80;;;;;;5083102;28;19916;-70
2022/03/20 07:00:21;;;;;;;;;;;6.20;70.90;;;;;;5067750;28;19920;-69
2022/03/20 07:02:47;;;;;;;;;;;6.20;71.00;;;;;;5085999;28;19915;-69
2022/03/20 07:05:13;;;;;;;;;;;6.20;70.80;;;;;;5085087;28;20296;-69
2022/03/20 07:07:40;;;;;;;;;;;6.20;70.70;;;;;;5084616;28;19919;-69
2022/03/20 07:10:06;;;;;;;;;;;6.20;70.70;;;;;;5082219;28;19914;-69
2022/03/20 07:12:31;;;;;;;;;;;6.20;70.60;;;;;;5083511;28;20400;-70
2022/03/20 07:14:57;;;;;;;;;;;6.20;70.70;;;;;;5084826;28;19915;-69
2022/03/20 07:17:24;;;;;;;;;;;6.20;70.80;;;;;;5085409;28;19912;-69
2022/03/20 07:19:50;;;;;;;;;;;6.20;70.70;;;;;;5082781;28;19912;-69
2022/03/20 07:22:16;;;;;;;;;;;6.20;70.50;;;;;;5082322;28;19995;-67
2022/03/20 07:24:43;;;;;;;;;;;6.20;70.70;;;;;;5081363;28;19920;-67
2022/03/20 07:29:54;;;;;;;;;;;6.30;70.20;;;;;;5084810;28;20288;-67
2022/03/20 07:32:19;;;;;;;;;;;6.30;70.80;;;;;;5082825;28;20042;-67
2022/03/20 07:34:45;;;;;;;;;;;6.30;70.30;;;;;;5066602;28;20011;-67
2022/03/20 07:37:15;;;;;;;;;;;6.30;70.50;;;;;;5083930;28;19915;-67
2022/03/20 07:39:40;;;;;;;;;;;6.30;70.50;;;;;;5083243;28;19916;-67
2022/03/20 07:42:08;;;;;;;;;;;6.30;70.50;;;;;;5083259;28;19921;-67
2022/03/20 07:44:35;;;;;;;;;;;6.30;70.50;;;;;;5082345;28;19987;-67
2022/03/20 07:47:00;;;;;;;;;;;6.40;70.40;;;;;;5080848;28;20252;-67
2022/03/20 07:49:26;;;;;;;;;;;6.40;70.50;;;;;;5082336;28;19913;-67
2022/03/20 07:51:53;;;;;;;;;;;6.40;70.40;;;;;;5082948;28;19963;-67
2022/03/20 07:54:18;;;;;;;;;;;6.50;70.30;;;;;;5085385;28;19955;-67
2022/03/20 07:56:45;;;;;;;;;;;6.50;70.10;;;;;;5083414;28;20380;-67
2022/03/20 07:59:11;;;;;;;;;;;6.50;70.40;;;;;;5083203;28;19918;-67
2022/03/20 08:01:37;;;;;;;;;;;6.50;70.30;;;;;;5082143;28;19941;-67
2022/03/20 08:04:03;;;;;;;;;;;6.50;70.30;;;;;;5083417;28;20329;-67
2022/03/20 08:06:29;;;;;;;;;;;6.50;71.00;;;;;;5082614;28;20325;-67
2022/03/20 08:08:59;;;;;;;;;;;6.60;70.40;;;;;;5083830;28;19950;-67
2022/03/20 08:11:28;;;;;;;;;;;6.60;70.40;;;;;;5083141;28;20030;-67
2022/03/20 08:13:54;;;;;;;;;;;6.60;70.20;;;;;;5083328;28;20256;-67
2022/03/20 08:16:22;;;;;;;;;;;6.60;70.20;;;;;;5082545;28;19916;-67
2022/03/20 08:18:48;;;;;;;;;;;6.70;70.10;;;;;;5084225;28;19920;-67
2022/03/20 08:21:13;;;;;;;;;;;6.70;69.90;;;;;;5083008;28;19916;-69
2022/03/20 08:23:39;;;;;;;;;;;6.80;70.00;;;;;;5080244;28;19919;-69
2022/03/20 08:26:08;;;;;;;;;;;6.80;69.20;;;;;;5082602;28;19944;-70
2022/03/20 08:28:37;;;;;;;;;;;6.80;69.60;;;;;;5087978;28;19958;-69
2022/03/20 08:31:03;;;;;;;;;;;6.80;70.00;;;;;;5088213;28;20391;-69
2022/03/20 08:33:28;;;;;;;;;;;6.80;69.70;;;;;;5086176;28;19966;-70
2022/03/20 08:35:54;;;;;;;;;;;6.80;69.60;;;;;;5085761;28;19935;-69
2022/03/20 08:38:19;;;;;;;;;;;6.90;69.60;;;;;;5075740;28;20336;-69
2022/03/20 08:40:45;;;;;;;;;;;6.90;69.80;;;;;;5086575;28;19908;-69
2022/03/20 08:43:15;;;;;;;;;;;7.00;69.60;;;;;;5085025;28;19961;-70
2022/03/20 08:45:41;;;;;;;;;;;7.00;69.40;;;;;;5085858;28;19922;-70
2022/03/20 08:48:06;;;;;;;;;;;7.10;69.40;;;;;;5088544;28;20003;-70
2022/03/20 08:50:32;;;;;;;;;;;7.20;69.50;;;;;;5083461;28;19998;-69
2022/03/20 08:52:58;;;;;;;;;;;7.20;69.20;;;;;;5087224;28;19995;-70
2022/03/20 08:55:24;;;;;;;;;;;7.30;69.00;;;;;;5085403;28;19990;-69
2022/03/20 08:57:52;;;;;;;;;;;7.30;68.60;;;;;;5084061;28;19920;-69
2022/03/20 09:00:19;;;;;;;;;;;7.40;68.90;;;;;;5087792;28;19916;-70
2022/03/20 09:02:45;;;;;;;;;;;7.40;68.70;;;;;;5086449;28;19918;-70
2022/03/20 09:05:12;;;;;;;;;;;7.40;68.70;;;;;;5085769;28;19931;-70
2022/03/20 09:07:41;;;;;;;;;;;7.50;68.90;;;;;;5088021;28;20002;-70
2022/03/20 09:10:07;;;;;;;;;;;7.50;68.70;;;;;;5087771;28;19938;-69
2022/03/20 09:12:34;;;;;;;;;;;7.60;68.60;;;;;;5086565;28;19916;-70
2022/03/20 09:15:01;;;;;;;;;;;7.70;68.60;;;;;;5084866;28;19912;-70
2022/03/20 09:20:10;;;;;;;;;;;7.70;68.50;;;;;;5083750;28;20060;-70
2022/03/20 09:22:36;;;;;;;;;;;7.80;68.40;;;;;;5085035;28;19995;-69
2022/03/20 09:25:01;;;;;;;;;;;7.80;68.50;;;;;;5085183;28;19916;-69
2022/03/20 09:27:27;;;;;;;;;;;7.80;68.50;;;;;;5083130;28;20360;-70
2022/03/20 09:29:53;;;;;;;;;;;7.80;68.40;;;;;;5087289;28;19958;-70
2022/03/20 09:32:20;;;;;;;;;;;7.80;68.30;;;;;;5086499;28;19993;-69
2022/03/20 09:34:45;;;;;;;;;;;7.80;68.50;;;;;;5071084;28;19908;-69
2022/03/20 09:37:11;;;;;;;;;;;7.80;68.50;;;;;;5082497;28;19927;-70
2022/03/20 09:39:37;;;;;;;;;;;7.90;68.70;;;;;;5080362;28;20332;-70
2022/03/20 09:42:03;;;;;;;;;;;7.90;68.60;;;;;;5084780;28;19912;-69
2022/03/20 09:44:29;;;;;;;;;;;8.00;68.60;;;;;;5069907;28;19916;-70
2022/03/20 09:46:55;;;;;;;;;;;8.00;68.40;;;;;;5084817;28;20557;-69
2022/03/20 09:49:24;;;;;;;;;;;8.00;68.30;;;;;;5086545;28;19999;-70
2022/03/20 09:51:49;;;;;;;;;;;8.10;68.20;;;;;;5081307;28;19942;-69
2022/03/20 09:54:15;;;;;;;;;;;8.10;67.80;;;;;;5067986;28;20364;-69
2022/03/20 09:56:41;;;;;;;;;;;8.20;68.30;;;;;;5086462;28;19947;-69
2022/03/20 09:59:07;;;;;;;;;;;8.20;67.80;;;;;;5084482;28;19954;-70
2022/03/20 10:01:33;;;;;;;;;;;8.30;67.90;;;;;;5082600;28;19944;-70
2022/03/20 10:04:06;;;;;;;;;;;8.30;67.20;;;;;;5084606;28;20640;-70
2022/03/20 10:06:35;;;;;;;;;;;8.40;67.40;;;;;;5083046;28;20320;-70
2022/03/20 10:09:02;;;;;;;;;;;8.50;67.60;;;;;;5084170;28;20300;-70
2022/03/20 10:11:28;;;;;;;;;;;8.50;66.50;;;;;;5079255;28;19916;-70
2022/03/20 10:14:07;;;;;;;;;;;8.60;67.30;;;;;;5083958;28;19912;-70
2022/03/20 10:16:33;;;;;;;;;;;8.60;67.80;;;;;;5085687;28;19947;-70
2022/03/20 10:18:58;;;;;;;;;;;8.70;67.70;;;;;;5086737;28;19916;-70
2022/03/20 10:21:45;;;;;;;;;;;8.70;67.20;;;;;;5085574;28;19944;-70
2022/03/20 10:24:15;;;;;;;;;;;8.70;67.60;;;;;;5082460;28;20374;-70
2022/03/20 10:26:40;;;;;;;;;;;8.70;67.90;;;;;;5085955;28;20071;-70
2022/03/20 10:29:12;;;;;;;;;;;8.80;67.80;;;;;;5084799;28;19912;-69
2022/03/20 10:31:46;;;;;;;;;;;8.80;67.70;;;;;;5080017;28;20003;-69
2022/03/20 10:34:11;;;;;;;;;;;8.80;68.00;;;;;;5080942;28;19916;-69
2022/03/20 10:36:37;;;;;;;;;;;8.80;67.80;;;;;;5082294;28;19912;-69
2022/03/20 10:39:08;;;;;;;;;;;8.90;68.70;;;;;;5086312;28;20382;-69
2022/03/20 10:41:34;;;;;;;;;;;8.90;68.00;;;;;;5082045;28;19916;-70
2022/03/20 10:44:00;;;;;;;;;;;9.00;68.20;;;;;;5084637;28;20006;-69
2022/03/20 10:46:30;;;;;;;;;;;9.00;68.00;;;;;;5083470;28;20042;-70
2022/03/20 10:48:59;;;;;;;;;;;9.10;67.50;;;;;;5055983;28;20011;-70
2022/03/20 10:51:26;;;;;;;;;;;9.10;67.80;;;;;;5083060;28;20523;-70
2022/03/20 10:53:53;;;;;;;;;;;9.10;67.80;;;;;;5083875;28;20338;-69
2022/03/20 10:56:19;;;;;;;;;;;9.20;68.00;;;;;;5067610;28;19916;-69
2022/03/20 10:58:45;;;;;;;;;;;9.20;67.20;;;;;;5084585;28;20391;-70
2022/03/20 11:01:12;;;;;;;;;;;9.30;67.30;;;;;;5084676;28;20028;-69
2022/03/20 11:03:39;;;;;;;;;;;9.30;67.60;;;;;;5083057;28;20053;-70
2022/03/20 11:06:08;;;;;;;;;;;9.40;67.50;;;;;;5082573;28;20024;-70
2022/03/20 11:08:34;;;;;;;;;;;9.40;67.60;;;;;;5083365;28;19923;-69
2022/03/20 11:11:00;;;;;;;;;;;9.50;66.90;;;;;;5081817;28;19916;-70
2022/03/20 11:13:26;;;;;;;;;;;9.50;66.70;;;;;;5084811;28;20030;-70
2022/03/20 11:15:53;;;;;;;;;;;9.60;66.90;;;;;;5081613;28;20006;-69
2022/03/20 11:18:20;;;;;;;;;;;9.70;67.30;;;;;;5083145;28;20086;-70
2022/03/20 11:20:48;;;;;;;;;;;9.70;67.30;;;;;;5068288;28;19920;-69
2022/03/20 11:23:14;;;;;;;;;;;9.80;65.70;;;;;;5082227;28;20465;-70
2022/03/20 11:25:42;;;;;;;;;;;9.80;66.60;;;;;;5064928;28;19916;-69
2022/03/20 11:28:09;;;;;;;;;;;9.90;66.50;;;;;;5083024;28;19923;-69
2022/03/20 11:30:36;;;;;;;;;;;9.90;65.70;;;;;;5082848;28;19949;-69
2022/03/20 11:33:01;;;;;;;;;;;10.00;66.70;;;;;;5081800;28;20035;-69
2022/03/20 11:35:30;;;;;;;;;;;9.90;66.70;;;;;;5081697;28;20373;-70
2022/03/20 11:37:59;;;;;;;;;;;10.00;66.90;;;;;;5081169;28;19912;-69
2022/03/20 11:40:26;;;;;;;;;;;10.00;66.80;;;;;;5082849;28;19923;-69
2022/03/20 11:43:11;;;;;;;;;;;10.10;67.40;;;;;;5080402;28;19908;-70
2022/03/20 11:45:36;;;;;;;;;;;10.10;66.60;;;;;;5064040;28;19990;-69
2022/03/20 11:48:13;;;;;;;;;;;10.10;66.90;;;;;;5079405;28;19950;-69
2022/03/20 11:50:47;;;;;;;;;;;10.10;66.60;;;;;;5080545;28;19920;-69
2022/03/20 11:53:13;;;;;;;;;;;10.20;66.70;;;;;;5083279;28;19920;-70
2022/03/20 11:55:40;;;;;;;;;;;10.20;65.70;;;;;;5084352;28;19912;-69
2022/03/20 11:58:08;;;;;;;;;;;10.20;66.10;;;;;;5066553;28;19916;-70
2022/03/20 12:00:36;;;;;;;;;;;10.30;66.90;;;;;;5083368;28;19916;-69
2022/03/20 12:03:07;;;;;;;;;;;10.30;66.70;;;;;;5083488;28;19954;-70
2022/03/20 12:05:32;;;;;;;;;;;10.30;66.70;;;;;;5083878;28;19916;-69
2022/03/20 12:08:16;;;;;;;;;;;10.30;66.90;;;;;;5080071;28;19916;-69
2022/03/20 12:10:45;;;;;;;;;;;10.40;66.70;;;;;;5078742;28;19917;-69
2022/03/20 12:13:18;;;;;;;;;;;10.40;67.10;;;;;;5080062;28;19912;-69
2022/03/20 12:15:44;;;;;;;;;;;10.40;65.80;;;;;;5082485;28;20058;-69
2022/03/20 12:18:10;;;;;;;;;;;10.50;67.20;;;;;;5082346;28;19919;-69
2022/03/20 12:20:48;;;;;;;;;;;10.50;67.10;;;;;;5080773;28;19908;-69
2022/03/20 12:23:29;;;;;;;;;;;10.50;67.40;;;;;;5084327;28;19951;-70
2022/03/20 12:25:55;;;;;;;;;;;10.50;67.30;;;;;;5080706;28;19908;-69
2022/03/20 12:28:28;;;;;;;;;;;10.50;67.40;;;;;;5082289;28;19999;-69
2022/03/20 12:30:53;;;;;;;;;;;10.50;67.50;;;;;;5080071;28;19924;-70
2022/03/20 12:33:26;;;;;;;;;;;10.60;67.60;;;;;;5081817;28;20257;-69
2022/03/20 12:35:52;;;;;;;;;;;10.60;67.10;;;;;;5083525;28;19990;-69
2022/03/20 12:38:41;;;;;;;;;;;10.60;67.20;;;;;;5082414;28;19920;-69
2022/03/20 12:41:14;;;;;;;;;;;10.70;67.30;;;;;;5072096;28;19923;-69
2022/03/20 12:43:40;;;;;;;;;;;10.70;67.40;;;;;;5082272;28;19920;-69
2022/03/20 12:46:08;;;;;;;;;;;10.80;67.50;;;;;;5083413;28;19908;-69
2022/03/20 12:48:34;;;;;;;;;;;10.80;67.50;;;;;;5082573;28;19970;-69
2022/03/20 12:51:09;;;;;;;;;;;10.80;67.40;;;;;;5067893;28;20526;-69
2022/03/20 12:53:43;;;;;;;;;;;10.80;67.50;;;;;;5064676;28;19916;-69
2022/03/20 12:59:17;;;;;;;;;;;10.80;67.50;;;;;;5025307;28;19995;-69
2022/03/20 13:01:43;;;;;;;;;;;10.80;67.90;;;;;;5080476;28;19966;-69
2022/03/20 13:04:26;;;;;;;;;;;10.80;68.10;;;;;;5082838;28;19916;-69
2022/03/20 13:06:52;;;;;;;;;;;10.70;68.20;;;;;;5080438;28;19922;-69
2022/03/20 13:09:18;;;;;;;;;;;10.70;68.40;;;;;;5065945;28;20499;-69
2022/03/20 13:11:51;;;;;;;;;;;10.70;68.40;;;;;;5081515;28;19928;-69
2022/03/20 13:14:17;;;;;;;;;;;10.80;68.40;;;;;;5067963;28;20026;-69
2022/03/20 13:16:49;;;;;;;;;;;10.80;68.50;;;;;;5084615;28;20400;-69
2022/03/20 13:19:23;;;;;;;;;;;10.80;68.50;;;;;;5084894;28;19923;-69
2022/03/20 13:21:52;;;;;;;;;;;10.90;68.30;;;;;;5084848;28;20444;-69
2022/03/20 13:24:33;;;;;;;;;;;10.90;68.20;;;;;;5085499;28;20016;-69
2022/03/20 13:27:00;;;;;;;;;;;11.00;68.10;;;;;;5070552;28;19912;-69
2022/03/20 13:29:25;;;;;;;;;;;11.10;68.10;;;;;;5069601;28;19912;-69
2022/03/20 13:31:58;;;;;;;;;;;11.10;68.00;;;;;;5085323;28;19923;-69
2022/03/20 13:34:23;;;;;;;;;;;11.10;68.00;;;;;;5086620;28;20633;-69
2022/03/20 13:36:49;;;;;;;;;;;11.10;68.00;;;;;;5086105;28;19912;-69
2022/03/20 13:39:14;;;;;;;;;;;11.20;68.00;;;;;;5071942;28;20010;-69
2022/03/20 13:41:43;;;;;;;;;;;11.10;68.10;;;;;;5068887;28;19924;-69
2022/03/20 13:44:11;;;;;;;;;;;11.20;68.30;;;;;;5084867;28;19923;-69
2022/03/20 13:46:37;;;;;;;;;;;11.10;68.40;;;;;;5080082;28;19913;-69
2022/03/20 13:49:07;;;;;;;;;;;11.10;68.60;;;;;;5079647;28;19912;-69
2022/03/20 13:51:33;;;;;;;;;;;11.10;68.90;;;;;;5068352;28;19920;-69
2022/03/20 13:54:19;;;;;;;;;;;11.10;69.10;;;;;;5086695;28;19992;-69
2022/03/20 13:56:49;;;;;;;;;;;11.10;69.10;;;;;;5085249;28;19998;-69
2022/03/20 13:59:17;;;;;;;;;;;11.10;69.20;;;;;;5085543;28;19926;-69
2022/03/20 14:01:50;;;;;;;;;;;11.10;69.30;;;;;;5085084;28;20356;-69
2022/03/20 14:04:17;;;;;;;;;;;11.00;69.30;;;;;;5084824;28;19916;-70
2022/03/20 14:06:43;;;;;;;;;;;11.00;69.40;;;;;;5083640;28;19916;-69
2022/03/20 14:09:09;;;;;;;;;;;11.00;69.50;;;;;;5086235;28;20455;-69
2022/03/20 14:11:36;;;;;;;;;;;11.00;69.60;;;;;;5068082;28;19922;-69
2022/03/20 14:14:07;;;;;;;;;;;11.00;69.80;;;;;;5084864;28;19912;-69
2022/03/20 14:16:34;;;;;;;;;;;11.00;69.80;;;;;;5086246;28;19909;-69
2022/03/20 14:19:04;;;;;;;;;;;11.00;69.90;;;;;;5084392;28;20010;-69
2022/03/20 14:21:32;;;;;;;;;;;11.00;70.00;;;;;;5086477;28;20023;-69
2022/03/20 14:24:03;;;;;;;;;;;11.00;70.00;;;;;;5066913;28;19923;-69
2022/03/20 14:26:31;;;;;;;;;;;10.90;70.00;;;;;;5083438;28;20885;-69
2022/03/20 14:29:07;;;;;;;;;;;10.90;70.00;;;;;;5082522;28;20415;-69
2022/03/20 14:40:06;;;;;;;;;;;10.90;70.40;;;;;;5080825;28;20403;-69
2022/03/20 14:42:34;;;;;;;;;;;10.90;70.50;;;;;;5084933;28;19947;-70
2022/03/20 14:45:01;;;;;;;;;;;10.80;70.60;;;;;;5081238;28;19922;-69
2022/03/20 14:47:26;;;;;;;;;;;10.80;71.30;;;;;;5081061;28;19922;-69
2022/03/20 14:49:53;;;;;;;;;;;10.80;70.60;;;;;;5079087;28;20346;-69
2022/03/20 14:52:19;;;;;;;;;;;10.80;70.60;;;;;;5083841;28;19974;-69
2022/03/20 14:54:45;;;;;;;;;;;10.80;70.60;;;;;;5085386;28;19926;-69
2022/03/20 14:57:11;;;;;;;;;;;10.80;70.70;;;;;;5068690;28;19926;-69
2022/03/20 14:59:36;;;;;;;;;;;10.80;70.70;;;;;;5069605;28;20554;-69
2022/03/20 15:02:02;;;;;;;;;;;10.80;70.70;;;;;;5082328;28;19916;-69
2022/03/20 15:04:33;;;;;;;;;;;10.80;70.80;;;;;;5063833;28;19986;-69
2022/03/20 15:06:59;;;;;;;;;;;10.80;70.80;;;;;;5082234;28;19943;-69
2022/03/20 15:12:08;;;;;;;;;;;10.80;71.00;;;;;;5081101;28;19926;-69